Jacksonville, IL

4:16 AM CDT on August 21, 2017 (GMT -0500)
Jacksonville Municipal

Weather History for KIJX - May, 2013

Change the Weather History Date:

Monday, May 6, 2013

  Actual Average (KSPI) Record (KSPI)
Temperature  
Mean Temperature 62 °F -  
Max Temperature 73 °F 70 °F 90 °F (2012)
Min Temperature 50 °F 49 °F 34 °F (1944)
Degree Days  
Heating Degree Days 4    
Growing Degree Days 12 (Base 50)    
Moisture  
Dew Point 52 °F    
Average Humidity 73    
Maximum Humidity 100    
Minimum Humidity 41    
Precipitation  
Precipitation 0.02 in - - ()
Sea Level Pressure  
Sea Level Pressure 29.98 in    
Wind  
Wind Speed 7 mph (NNE)    
Max Wind Speed 18 mph    
Max Gust Speed 24 mph    
Visibility 10 miles    
Events      
Averages and records for this station are not official NWS values.
T = Trace of Precipitation, MM = Missing Value Source: NWS Daily Summary

Daily Weather History Graph

Daily Weather History Graph

Search for Another Location

Airport or City:

Trip Planner

Search our weather history database for the weather conditions in past years. The results will help you decide how hot, cold, wet, or windy it might be!

Date:

Astronomy

May. 06, 2013 Rise Set
Actual Time 5:55 AM CDT 8:00 PM CDT
Civil Twilight 5:25 AM CDT 8:30 PM CDT
Nautical Twilight 4:49 AM CDT 9:06 PM CDT
Astronomical Twilight 4:09 AM CDT 9:46 PM CDT
Moon 3:56 AM CDT (5/6) 5:01 PM CDT (5/6)
Length of Visible Light 15h 04m
Length of Day
14h 05m
Waning Crescent, 11% of the Moon is Illuminated
May 6
Waning Crescent
May 9
New
May 17
First Quarter
May 24
Full
May 31
Last Quarter

Hourly Weather History & Observations

Time (CDT) Temp. Dew Point Humidity Pressure Visibility Wind Dir Wind Speed Gust Speed Precip Events Conditions
12:15 AM 56.3 °F 53.8 °F 91% 29.98 in 10.0 mi NE 6.9 mph - N/A   Mostly Cloudy
12:35 AM 56.3 °F 53.8 °F 91% 29.98 in 10.0 mi NNE 5.8 mph - N/A   Overcast
12:55 AM 56.3 °F 53.6 °F 91% 29.98 in 10.0 mi NE 6.9 mph - N/A   Overcast
1:15 AM 56.3 °F 53.8 °F 91% 29.98 in 10.0 mi NE 6.9 mph - N/A   Overcast
1:35 AM 55.9 °F 53.8 °F 92% 29.96 in 10.0 mi North 3.5 mph - N/A   Overcast
1:55 AM 55.4 °F 53.2 °F 92% 29.97 in 10.0 mi NNE 5.8 mph - N/A   Mostly Cloudy
2:15 AM 55.4 °F 52.9 °F 91% 29.97 in 10.0 mi NE 8.1 mph - N/A   Overcast
2:35 AM 54.9 °F 52.0 °F 90% 29.97 in 10.0 mi ENE 9.2 mph - N/A   Mostly Cloudy
2:55 AM 53.8 °F 51.4 °F 92% 29.96 in 10.0 mi ENE 4.6 mph - N/A   Overcast
3:15 AM 53.6 °F 51.3 °F 92% 29.96 in 10.0 mi NNE 4.6 mph - N/A   Overcast
3:35 AM 52.7 °F 50.5 °F 92% 29.97 in 10.0 mi NNE 3.5 mph - N/A   Scattered Clouds
3:55 AM 51.1 °F 49.3 °F 94% 29.97 in 10.0 mi NNW 5.8 mph - N/A   Scattered Clouds
4:15 AM 50.9 °F 49.8 °F 96% 29.97 in 10.0 mi North 4.6 mph - N/A   Mostly Cloudy
4:35 AM 50.5 °F 49.3 °F 95% 29.97 in 10.0 mi NNW 4.6 mph - N/A   Scattered Clouds
4:55 AM 50.4 °F 49.1 °F 95% 29.97 in 10.0 mi NNW 4.6 mph - N/A   Mostly Cloudy
5:15 AM 50.2 °F 49.1 °F 96% 29.98 in 10.0 mi NNW 4.6 mph - N/A   Scattered Clouds
5:35 AM 50.0 °F 50.0 °F 100% 29.98 in 10.0 mi North 4.6 mph - N/A   Scattered Clouds
5:55 AM 50.7 °F 49.6 °F 96% 29.99 in 10.0 mi NNW 4.6 mph - N/A   Mostly Cloudy
6:15 AM 51.4 °F 50.5 °F 97% 29.99 in 10.0 mi NNW 4.6 mph - N/A   Overcast
6:35 AM 52.2 °F 51.1 °F 96% 30.00 in 10.0 mi NNW 5.8 mph - N/A   Overcast
6:55 AM 53.4 °F 52.0 °F 95% 30.00 in 10.0 mi NNW 4.6 mph - N/A   Overcast
7:15 AM 54.5 °F 52.7 °F 94% 30.00 in 10.0 mi North 6.9 mph - N/A   Overcast
7:35 AM 55.6 °F 52.9 °F 91% 30.01 in 10.0 mi NW 4.6 mph - N/A   Overcast
7:55 AM 56.5 °F 52.9 °F 88% 30.01 in 10.0 mi NNW 8.1 mph - N/A   Mostly Cloudy
8:15 AM 57.2 °F 52.9 °F 85% 30.01 in 10.0 mi NNW 10.4 mph - N/A   Scattered Clouds
8:35 AM 58.1 °F 52.2 °F 81% 30.01 in 10.0 mi NNW 12.7 mph - N/A   Mostly Cloudy
8:55 AM 59.0 °F 52.2 °F 78% 30.01 in 10.0 mi NNW 11.5 mph - N/A   Scattered Clouds
9:15 AM 59.9 °F 52.7 °F 77% 30.02 in 10.0 mi NNW 8.1 mph - N/A   Scattered Clouds
9:35 AM 61.2 °F 52.7 °F 74% 30.02 in 10.0 mi NNW 10.4 mph - N/A   Scattered Clouds
9:55 AM 62.4 °F 52.5 °F 70% 30.02 in 10.0 mi North 12.7 mph - N/A   Scattered Clouds
10:15 AM 63.7 °F 52.9 °F 68% 30.01 in 10.0 mi North 13.8 mph - N/A   Scattered Clouds
10:35 AM 65.3 °F 53.8 °F 66% 30.01 in 10.0 mi North 13.8 mph 18.4 mph N/A   Scattered Clouds
10:55 AM 66.7 °F 53.4 °F 62% 30.00 in 10.0 mi North 16.1 mph - N/A   Clear
11:15 AM 67.6 °F 53.1 °F 59% 29.99 in 10.0 mi North 13.8 mph 23.0 mph N/A   Clear
11:35 AM 67.3 °F 52.3 °F 59% 29.99 in 10.0 mi North 13.8 mph 24.2 mph N/A   Clear
11:55 AM 67.6 °F 51.1 °F 55% 29.99 in 10.0 mi NNE 11.5 mph 20.7 mph N/A   Clear
12:15 PM 69.8 °F 52.3 °F 54% 29.98 in 10.0 mi NNE 15.0 mph 18.4 mph N/A   Clear
12:35 PM 70.3 °F 51.8 °F 52% 29.98 in 10.0 mi NNE 11.5 mph 20.7 mph N/A   Clear
12:55 PM 71.2 °F 50.9 °F 49% 29.98 in 10.0 mi NNE 15.0 mph - N/A   Clear
1:15 PM 71.6 °F 49.5 °F 45% 29.98 in 10.0 mi NE 15.0 mph 19.6 mph N/A   Clear
1:35 PM 72.7 °F 49.1 °F 43% 29.98 in 10.0 mi ENE 18.4 mph 23.0 mph N/A   Clear
1:55 PM 72.9 °F 49.5 °F 44% 29.98 in 10.0 mi ENE 16.1 mph - N/A   Clear
2:15 PM 72.9 °F 47.7 °F 41% 29.98 in 10.0 mi NE 12.7 mph - N/A   Clear
2:35 PM 73.0 °F 51.3 °F 46% 29.97 in 10.0 mi East 13.8 mph 19.6 mph N/A   Clear
2:55 PM 72.7 °F 52.0 °F 48% 29.97 in 10.0 mi ENE 11.5 mph - N/A   Clear
3:15 PM 72.5 °F 51.3 °F 47% 29.97 in 10.0 mi East 12.7 mph - N/A   Scattered Clouds
3:35 PM 72.3 °F 48.0 °F 42% 29.97 in 10.0 mi NE 6.9 mph 20.7 mph N/A   Scattered Clouds
3:55 PM 70.7 °F 50.5 °F 49% 29.97 in 10.0 mi NE 10.4 mph - N/A   Mostly Cloudy
4:15 PM 70.2 °F 50.4 °F 49% 29.96 in 10.0 mi ENE 8.1 mph - N/A   Mostly Cloudy
4:35 PM 69.8 °F 52.2 °F 53% 29.96 in 10.0 mi East 5.8 mph - N/A   Overcast
4:55 PM 69.8 °F 52.3 °F 54% 29.96 in 10.0 mi ESE 4.6 mph - N/A   Mostly Cloudy
5:15 PM 69.4 °F 52.9 °F 56% 29.96 in 10.0 mi Calm Calm - N/A   Overcast
5:35 PM 69.8 °F 53.2 °F 56% 29.96 in 10.0 mi Calm Calm - N/A   Mostly Cloudy
5:55 PM 69.6 °F 54.1 °F 58% 29.96 in 10.0 mi Calm Calm - N/A   Overcast
6:15 PM 69.1 °F 54.5 °F 60% 29.96 in 10.0 mi Calm Calm - N/A   Overcast
6:35 PM 68.0 °F 57.2 °F 68% 29.96 in 10.0 mi West 3.5 mph - N/A   Overcast
6:55 PM 67.5 °F 54.5 °F 63% 29.96 in 10.0 mi Calm Calm - N/A   Overcast
7:15 PM 67.3 °F 53.2 °F 61% 29.96 in 10.0 mi NNW 3.5 mph - N/A   Overcast
7:35 PM 66.2 °F 53.6 °F 64% 29.97 in 10.0 mi WNW 4.6 mph - N/A   Overcast
7:55 PM 65.3 °F 55.4 °F 70% 29.97 in 10.0 mi NW 3.5 mph - N/A   Overcast
8:15 PM 64.9 °F 55.0 °F 70% 29.98 in 10.0 mi Calm Calm - N/A   Overcast
8:35 PM 66.2 °F 53.6 °F 64% 29.98 in 10.0 mi Calm Calm - N/A   Overcast
8:55 PM 65.7 °F 52.9 °F 63% 29.98 in 10.0 mi Calm Calm - N/A   Overcast
9:15 PM 63.5 °F 54.9 °F 73% 29.99 in 10.0 mi East 5.8 mph - N/A   Overcast
9:35 PM 62.8 °F 54.7 °F 75% 30.00 in 10.0 mi Calm Calm - N/A   Overcast
9:55 PM 63.0 °F 54.9 °F 75% 30.00 in 10.0 mi Calm Calm - N/A   Overcast
10:15 PM 63.3 °F 54.0 °F 71% 30.00 in 10.0 mi Calm Calm - N/A   Overcast
10:35 PM 63.1 °F 54.9 °F 74% 30.00 in 10.0 mi Calm Calm - N/A   Overcast
10:55 PM 62.6 °F 55.4 °F 77% 29.99 in 10.0 mi Calm Calm - N/A   Overcast
11:15 PM 61.3 °F 55.6 °F 81% 30.00 in 10.0 mi Calm Calm - N/A   Overcast
11:35 PM 61.3 °F 55.8 °F 82% 29.99 in 10.0 mi Calm Calm - N/A   Overcast
11:55 PM 60.4 °F 55.8 °F 85% 30.00 in 10.0 mi Calm Calm - N/A   Overcast